Details for TUI Airlines UK (Thomson) at EGCC




Go Back


Latest METAR
Local Time

EGCC 241320Z AUTO 09007KT 020V180 9999 NCD 05/M05 Q1024 NOSIG

24/02/2018, 13:47:10

Description
Results
TUI Airlines UK (Thomson) Logo
Number of Pilots based at EGCC
2 Pilots Based here
Number of TUI Airlines UK (Thomson) Flights Departed from EGCC
31 Flights Departed
Number of TUI Airlines UK (Thomson) Flights Arrived at EGCC
23 Flights Arrived
Number of TUI Airlines UK (Thomson) Schedules Departing from EGCC
76 Schedules
Number of TUI Airlines UK (Thomson) Schedules Arriving at EGCC
86 Schedules
Number of TUI Airlines UK (Thomson) Schedules Departing from EGCC availible today
11 Schedules Today
Number of TUI Airlines UK (Thomson) Schedules Arriving at EGCC availible today
13 Schedules Today
Average Landing Rate at EGCC
-218 fpm
TUI Airlines UK (Thomson) Average Landing Rate at EGCC
-172 fpm
Total Fuel Purchased at EGCC by TUI Airlines UK (Thomson)
372,685.93 kgs / 821,623.40 lbs

Pilots Based at EGCC


Pilot ID
Pilot Name
Pilot Rank
No. of Flights
No. of Flying Hours
Kevin Himsworth
7
14.38
Andrew Sutcliffe
333
1262.36
Content